createdAt,value
2023-03-11T00:02:30.796Z,95.26
2023-03-11T00:05:18.470Z,95.30
2023-03-11T00:08:05.547Z,95.26
2023-03-11T00:11:00.581Z,95.77
2023-03-11T00:13:45.433Z,95.21
2023-03-11T00:16:30.400Z,95.16
2023-03-11T00:19:15.412Z,94.76
2023-03-11T00:22:02.249Z,95.35
2023-03-11T00:24:47.073Z,95.10
2023-03-11T00:27:31.979Z,94.71
2023-03-11T00:30:18.683Z,95.10
2023-03-11T00:33:04.404Z,94.68
2023-03-11T00:35:49.897Z,94.65
2023-03-11T00:38:34.719Z,95.12
2023-03-11T00:41:20.928Z,94.84
2023-03-11T00:44:06.186Z,94.58
2023-03-11T00:46:51.217Z,94.16
2023-03-11T00:49:36.894Z,94.50
2023-03-11T00:52:21.768Z,94.80
2023-03-11T00:55:08.060Z,94.68
2023-03-11T00:57:54.909Z,94.54
2023-03-11T01:00:40.126Z,94.32
2023-03-11T01:03:24.989Z,94.34
2023-03-11T01:06:10.021Z,94.85
2023-03-11T01:08:55.437Z,94.11
2023-03-11T01:11:40.143Z,94.42
2023-03-11T01:14:25.190Z,94.75
2023-03-11T01:17:10.258Z,94.60
2023-03-11T01:19:55.284Z,94.53
2023-03-11T01:22:40.286Z,94.80
2023-03-11T01:25:25.898Z,94.62
2023-03-11T01:28:11.368Z,94.80
2023-03-11T01:30:56.603Z,94.58
2023-03-11T01:33:42.182Z,94.53
2023-03-11T01:36:27.068Z,94.16
2023-03-11T01:39:11.972Z,93.71
2023-03-11T01:41:56.956Z,93.87
2023-03-11T01:44:42.504Z,93.55
2023-03-11T01:47:36.743Z,93.77
2023-03-11T01:50:22.713Z,93.63
2023-03-11T01:53:09.364Z,93.86
2023-03-11T01:55:55.498Z,93.60
2023-03-11T01:58:46.596Z,94.07
2023-03-11T02:01:35.979Z,94.23
2023-03-11T02:04:27.113Z,93.91
2023-03-11T02:07:14.487Z,94.36
2023-03-11T02:09:59.851Z,94.43
2023-03-11T02:12:46.570Z,94.49
2023-03-11T02:15:31.639Z,94.41
2023-03-11T02:18:22.117Z,94.26
2023-03-11T02:21:16.546Z,94.17
2023-03-11T02:24:17.496Z,94.14
2023-03-11T02:27:12.036Z,93.67
2023-03-11T02:30:02.547Z,93.67
2023-03-11T02:32:49.416Z,93.94
2023-03-11T02:35:35.854Z,93.35
2023-03-11T02:38:20.806Z,93.42
2023-03-11T02:41:06.693Z,92.87
2023-03-11T02:43:52.817Z,92.64
2023-03-11T02:46:42.628Z,92.58
2023-03-11T02:49:29.858Z,92.37
2023-03-11T02:52:15.232Z,91.78
2023-03-11T02:55:01.275Z,91.53
2023-03-11T02:57:50.798Z,91.57
2023-03-11T03:00:36.468Z,91.92
2023-03-11T03:03:23.154Z,92.07
2023-03-11T03:06:09.184Z,92.61
2023-03-11T03:08:55.962Z,92.30
2023-03-11T03:11:41.749Z,92.72
2023-03-11T03:14:28.212Z,92.11
2023-03-11T03:17:13.536Z,92.24
2023-03-11T03:19:58.993Z,92.66
2023-03-11T03:22:44.832Z,92.40
2023-03-11T03:25:30.260Z,92.49
2023-03-11T03:28:18.931Z,91.85
2023-03-11T03:31:12.458Z,91.79
2023-03-11T03:33:59.222Z,92.32
2023-03-11T03:36:44.317Z,91.96
2023-03-11T03:39:30.786Z,91.88
2023-03-11T03:42:15.935Z,92.11
2023-03-11T03:45:01.109Z,92.44
2023-03-11T03:47:45.938Z,92.10
2023-03-11T03:50:31.167Z,92.02
2023-03-11T03:53:15.966Z,91.99
2023-03-11T03:56:08.862Z,92.04
2023-03-11T03:58:54.207Z,91.99
2023-03-11T04:01:39.128Z,92.18
2023-03-11T04:04:24.269Z,91.95
2023-03-11T04:07:09.350Z,92.47
2023-03-11T04:09:54.267Z,92.00
2023-03-11T04:12:39.120Z,92.17
2023-03-11T04:15:24.176Z,91.50
2023-03-11T04:18:09.330Z,91.41
2023-03-11T04:20:54.424Z,91.51
2023-03-11T04:23:39.353Z,91.46
2023-03-11T04:26:24.576Z,91.20
2023-03-11T04:29:09.830Z,91.93
2023-03-11T04:31:54.894Z,92.00
2023-03-11T04:34:41.059Z,91.62
2023-03-11T04:37:29.822Z,92.35
2023-03-11T04:40:15.482Z,92.06
2023-03-11T04:43:00.411Z,92.78
2023-03-11T04:45:45.743Z,92.88
2023-03-11T04:48:30.738Z,92.68
2023-03-11T04:51:15.930Z,92.88
2023-03-11T04:54:00.974Z,92.96
2023-03-11T04:56:46.136Z,93.10
2023-03-11T04:59:31.151Z,92.86
2023-03-11T05:02:16.348Z,93.57
2023-03-11T05:05:01.674Z,93.71
2023-03-11T05:07:47.505Z,93.10
2023-03-11T05:10:33.736Z,92.91
2023-03-11T05:13:19.574Z,93.14
2023-03-11T05:16:05.209Z,92.66
2023-03-11T05:18:50.235Z,92.85
2023-03-11T05:21:35.440Z,92.25
2023-03-11T05:24:20.537Z,92.62
2023-03-11T05:27:05.688Z,92.33
2023-03-11T05:29:50.809Z,92.34
2023-03-11T05:32:36.520Z,92.35
2023-03-11T05:35:21.890Z,92.16
2023-03-11T05:38:08.034Z,92.66
2023-03-11T05:40:53.972Z,92.27
2023-03-11T05:43:38.967Z,92.56
2023-03-11T05:46:24.105Z,92.38
2023-03-11T05:49:08.952Z,91.85
2023-03-11T05:51:58.864Z,92.06
2023-03-11T05:54:44.247Z,91.49
2023-03-11T05:57:29.408Z,91.53
2023-03-11T06:00:14.733Z,91.39
2023-03-11T06:03:00.267Z,91.23
2023-03-11T06:05:46.701Z,91.29
2023-03-11T06:08:34.315Z,91.63
2023-03-11T06:11:19.544Z,91.83
2023-03-11T06:14:06.294Z,91.52
2023-03-11T06:16:51.425Z,91.43
2023-03-11T06:19:36.319Z,91.34
2023-03-11T06:22:21.430Z,91.49
2023-03-11T06:25:06.942Z,91.25
2023-03-11T06:27:53.274Z,91.96
2023-03-11T06:30:38.086Z,92.00
2023-03-11T06:33:24.014Z,91.81
2023-03-11T06:36:10.885Z,91.91
2023-03-11T06:38:56.652Z,91.80
2023-03-11T06:41:42.246Z,91.45
2023-03-11T06:44:27.407Z,91.01
2023-03-11T06:47:12.625Z,91.09
2023-03-11T06:49:57.594Z,90.79
2023-03-11T06:52:42.744Z,90.63
2023-03-11T06:55:27.749Z,90.59
2023-03-11T06:58:13.571Z,89.92
2023-03-11T07:01:02.536Z,89.43
2023-03-11T07:03:48.946Z,89.57
2023-03-11T07:06:33.982Z,90.22
2023-03-11T07:09:18.778Z,89.08
2023-03-11T07:12:06.365Z,89.09
2023-03-11T07:14:56.122Z,89.23
2023-03-11T07:17:40.967Z,88.56
2023-03-11T07:20:26.266Z,89.71
2023-03-11T07:23:12.764Z,89.88
2023-03-11T07:25:57.773Z,89.99
2023-03-11T07:28:42.925Z,89.18
2023-03-11T07:31:30.411Z,89.07
2023-03-11T07:34:17.660Z,89.42
2023-03-11T07:37:03.632Z,89.36
2023-03-11T07:39:49.326Z,89.66
2023-03-11T07:42:35.717Z,89.00
2023-03-11T07:45:20.829Z,89.50
2023-03-11T07:48:05.732Z,88.96
2023-03-11T07:51:00.553Z,88.42
2023-03-11T07:53:46.224Z,88.90
2023-03-11T07:56:34.239Z,88.19
2023-03-11T07:59:21.326Z,88.47
2023-03-11T08:02:06.879Z,88.48
2023-03-11T08:04:52.374Z,87.39
2023-03-11T08:07:37.314Z,87.53
2023-03-11T08:10:28.996Z,87.42
2023-03-11T08:13:17.682Z,86.71
2023-03-11T08:16:09.168Z,86.41
2023-03-11T08:18:58.903Z,85.60
2023-03-11T08:21:53.914Z,86.13
2023-03-11T08:24:41.223Z,85.02
2023-03-11T08:27:28.603Z,84.41
2023-03-11T08:30:15.135Z,83.83
2023-03-11T08:33:00.552Z,83.54
2023-03-11T08:35:45.760Z,83.81
2023-03-11T08:38:31.080Z,83.52
2023-03-11T08:41:16.278Z,83.44
2023-03-11T08:44:01.752Z,82.06
2023-03-11T08:46:47.677Z,79.98
2023-03-11T08:49:34.054Z,79.11
2023-03-11T08:52:19.248Z,78.62
2023-03-11T08:55:05.124Z,78.19
2023-03-11T08:57:51.100Z,77.86
2023-03-11T09:00:36.133Z,77.13
2023-03-11T09:03:21.473Z,77.55
2023-03-11T09:06:11.099Z,76.34
2023-03-11T09:08:57.609Z,75.32
2023-03-11T09:11:42.838Z,74.25
2023-03-11T09:14:27.987Z,76.19
2023-03-11T09:17:14.691Z,74.98
2023-03-11T09:20:00.129Z,74.35
2023-03-11T09:22:45.662Z,75.26
2023-03-11T09:25:30.567Z,75.53
2023-03-11T09:28:15.842Z,76.28
2023-03-11T09:31:01.001Z,75.57
2023-03-11T09:33:47.458Z,76.90
2023-03-11T09:36:32.371Z,76.64
2023-03-11T09:39:17.413Z,79.15
2023-03-11T09:42:11.393Z,79.22
2023-03-11T09:45:04.285Z,79.26
2023-03-11T09:48:01.668Z,78.59
2023-03-11T09:51:10.428Z,75.81
2023-03-11T09:54:03.639Z,76.27
2023-03-11T09:56:49.029Z,75.02
2023-03-11T09:59:37.191Z,76.19
2023-03-11T10:02:26.671Z,76.54
2023-03-11T10:05:20.594Z,74.62
2023-03-11T10:08:33.273Z,76.40
2023-03-11T10:11:30.893Z,75.08
2023-03-11T10:14:40.257Z,75.40
2023-03-11T10:17:43.976Z,75.24
2023-03-11T10:20:51.121Z,73.16
2023-03-11T10:24:10.257Z,73.38
2023-03-11T10:27:01.994Z,72.74
2023-03-11T10:30:02.753Z,69.37
2023-03-11T10:32:58.536Z,69.77
2023-03-11T10:35:48.049Z,70.86
2023-03-11T10:38:38.386Z,70.79
2023-03-11T10:41:26.409Z,70.95
2023-03-11T10:44:17.367Z,69.43
2023-03-11T10:47:03.378Z,70.22
2023-03-11T10:49:48.794Z,69.70
2023-03-11T10:52:44.864Z,69.33
2023-03-11T10:55:30.170Z,68.46
2023-03-11T10:58:19.245Z,69.80
2023-03-11T11:01:17.947Z,71.16
2023-03-11T11:04:03.958Z,72.68
2023-03-11T11:06:49.159Z,70.91
2023-03-11T11:09:33.927Z,73.40
2023-03-11T11:12:21.264Z,72.43
2023-03-11T11:15:07.227Z,71.38
2023-03-11T11:17:55.885Z,70.46
2023-03-11T11:20:59.574Z,71.68
2023-03-11T11:23:50.160Z,69.98
2023-03-11T11:26:35.632Z,70.72
2023-03-11T11:29:20.487Z,71.88
2023-03-11T11:32:26.159Z,68.89
2023-03-11T11:35:14.756Z,66.18
2023-03-11T11:38:05.896Z,68.78
2023-03-11T11:40:52.342Z,70.24
2023-03-11T11:44:02.367Z,65.98
2023-03-11T11:46:57.236Z,66.91
2023-03-11T11:49:51.925Z,67.81
2023-03-11T11:52:47.343Z,66.52
2023-03-11T11:55:33.614Z,66.69
2023-03-11T11:58:19.300Z,65.43
2023-03-11T12:01:14.546Z,66.24
2023-03-11T12:04:28.464Z,67.53
2023-03-11T12:07:31.927Z,65.47
2023-03-11T12:10:39.290Z,66.42
2023-03-11T12:13:57.569Z,66.31
2023-03-11T12:17:01.982Z,67.69
2023-03-11T12:20:00.421Z,65.92
2023-03-11T12:23:11.196Z,65.97
2023-03-11T12:26:22.041Z,67.53
2023-03-11T12:29:19.850Z,66.61
2023-03-11T12:32:06.581Z,65.94
2023-03-11T12:34:54.815Z,65.97
2023-03-11T12:37:46.934Z,65.61
2023-03-11T12:40:58.637Z,65.29
2023-03-11T12:43:47.800Z,62.37
2023-03-11T12:47:11.656Z,62.17
2023-03-11T12:50:34.917Z,61.06
2023-03-11T12:53:21.230Z,59.82
2023-03-11T12:56:25.288Z,59.86
2023-03-11T12:59:41.792Z,58.62
2023-03-11T13:03:17.919Z,58.76
2023-03-11T13:06:15.010Z,59.08
2023-03-11T13:09:01.647Z,58.08
2023-03-11T13:11:48.350Z,57.50
2023-03-11T13:14:35.094Z,54.44
2023-03-11T13:17:26.759Z,56.54
2023-03-11T13:20:47.585Z,59.75
2023-03-11T13:23:37.872Z,59.80
2023-03-11T13:26:33.073Z,59.87
2023-03-11T13:29:21.124Z,58.88
2023-03-11T13:32:40.575Z,59.19
2023-03-11T13:35:44.357Z,59.25
2023-03-11T13:39:03.725Z,60.00
2023-03-11T13:41:49.831Z,58.56
2023-03-11T13:44:46.154Z,56.75
2023-03-11T13:47:36.686Z,55.63
2023-03-11T13:50:43.682Z,57.76
2023-03-11T13:53:34.835Z,57.15
2023-03-11T13:56:33.300Z,55.60
2023-03-11T13:59:27.227Z,55.66
2023-03-11T14:02:19.326Z,53.73
2023-03-11T14:05:07.201Z,55.15
2023-03-11T14:07:54.013Z,56.62
2023-03-11T14:10:41.938Z,53.22
2023-03-11T14:13:38.904Z,52.16
2023-03-11T14:16:35.666Z,50.64
2023-03-11T14:19:21.182Z,51.15
2023-03-11T14:22:08.278Z,50.03
2023-03-11T14:24:53.751Z,49.51
2023-03-11T14:27:39.525Z,50.81
2023-03-11T14:30:30.152Z,51.49
2023-03-11T14:33:22.149Z,55.53
2023-03-11T14:36:13.673Z,55.00
2023-03-11T14:38:58.643Z,58.50
2023-03-11T14:41:43.943Z,59.14
2023-03-11T14:44:34.329Z,59.39
2023-03-11T14:47:30.499Z,62.46
2023-03-11T14:50:21.343Z,62.42
2023-03-11T14:53:13.837Z,62.21
2023-03-11T14:56:21.215Z,63.05
2023-03-11T14:59:15.436Z,64.19
2023-03-11T15:02:39.549Z,64.00
2023-03-11T15:05:33.596Z,63.43
2023-03-11T15:08:21.896Z,63.46
2023-03-11T15:11:14.006Z,63.69
2023-03-11T15:14:17.687Z,63.72
2023-03-11T15:17:32.870Z,63.73
2023-03-11T15:20:34.424Z,63.59
2023-03-11T15:23:22.562Z,64.03
2023-03-11T15:26:19.114Z,64.41
2023-03-11T15:29:16.687Z,64.65
2023-03-11T15:32:38.604Z,63.26
2023-03-11T15:35:28.830Z,63.94
2023-03-11T15:38:25.562Z,65.08
2023-03-11T15:41:11.206Z,64.39
2023-03-11T15:44:00.404Z,65.56
2023-03-11T15:46:47.436Z,63.34
2023-03-11T15:49:33.613Z,60.38
2023-03-11T15:52:22.140Z,56.86
2023-03-11T15:55:08.321Z,54.31
2023-03-11T15:58:04.766Z,53.90
2023-03-11T16:00:56.366Z,51.83
2023-03-11T16:03:41.715Z,50.94
2023-03-11T16:06:26.987Z,49.69
2023-03-11T16:09:15.500Z,50.17
2023-03-11T16:12:02.461Z,54.24
2023-03-11T16:14:48.995Z,54.30
2023-03-11T16:17:48.951Z,56.95
2023-03-11T16:20:44.561Z,60.26
2023-03-11T16:23:50.184Z,60.69
2023-03-11T16:26:35.736Z,62.08
2023-03-11T16:29:23.114Z,63.13
2023-03-11T16:32:11.174Z,62.82
2023-03-11T16:34:56.184Z,63.54
2023-03-11T16:37:43.700Z,62.95
2023-03-11T16:40:29.915Z,64.80
2023-03-11T16:43:15.349Z,64.16
2023-03-11T16:46:00.235Z,65.34
2023-03-11T16:48:45.790Z,65.55
2023-03-11T16:51:31.206Z,65.92
2023-03-11T16:54:19.152Z,65.48
2023-03-11T16:57:04.144Z,67.61
2023-03-11T16:59:49.345Z,67.02
2023-03-11T17:02:35.399Z,67.11
2023-03-11T17:05:20.506Z,66.62
2023-03-11T17:08:08.527Z,67.21
2023-03-11T17:10:56.120Z,66.85
2023-03-11T17:13:41.564Z,67.78
2023-03-11T17:16:26.916Z,67.25
2023-03-11T17:19:15.682Z,67.28
2023-03-11T17:22:00.846Z,67.00
2023-03-11T17:24:45.715Z,66.64
2023-03-11T17:27:32.492Z,67.25
2023-03-11T17:30:35.640Z,66.80
2023-03-11T17:33:21.252Z,68.62
2023-03-11T17:36:08.894Z,69.33
2023-03-11T17:41:57.734Z,71.33
2023-03-11T17:44:51.487Z,72.21
2023-03-11T17:47:37.377Z,69.33
2023-03-11T17:50:23.705Z,71.89
2023-03-11T17:53:10.122Z,73.08
2023-03-11T17:55:55.333Z,73.88
2023-03-11T17:58:40.959Z,72.21
2023-03-11T18:01:27.937Z,71.03
2023-03-11T18:04:13.209Z,74.70
2023-03-11T18:06:58.201Z,69.52
2023-03-11T18:09:43.519Z,71.65
2023-03-11T18:12:28.435Z,71.68
2023-03-11T18:15:16.567Z,70.94
2023-03-11T18:18:02.816Z,72.63
2023-03-11T18:20:48.213Z,71.65
2023-03-11T18:23:35.114Z,71.49
2023-03-11T18:26:20.625Z,72.78
2023-03-11T18:29:05.544Z,72.49
2023-03-11T18:31:50.837Z,71.60
2023-03-11T18:34:35.990Z,76.11
2023-03-11T18:37:21.425Z,70.40
2023-03-11T18:40:07.363Z,71.78
2023-03-11T18:42:53.038Z,73.73
2023-03-11T18:45:39.484Z,72.23
2023-03-11T18:48:27.889Z,70.35
2023-03-11T18:51:13.980Z,71.70
2023-03-11T18:54:01.844Z,74.38
2023-03-11T18:56:46.983Z,74.91
2023-03-11T18:59:31.914Z,75.49
2023-03-11T19:02:18.299Z,74.03
2023-03-11T19:05:04.366Z,75.59
2023-03-11T19:07:49.532Z,75.28
2023-03-11T19:10:34.458Z,73.95
2023-03-11T19:13:20.952Z,76.28
2023-03-11T19:16:08.182Z,72.93
2023-03-11T19:18:55.052Z,76.92
2023-03-11T19:21:41.838Z,75.41
2023-03-11T19:24:26.952Z,76.08
2023-03-11T19:27:13.070Z,75.92
2023-03-11T19:29:58.189Z,74.78
2023-03-11T19:32:43.180Z,73.98
2023-03-11T19:35:29.181Z,76.60
2023-03-11T19:38:14.016Z,73.45
2023-03-11T19:41:05.078Z,75.60
2023-03-11T19:43:50.352Z,74.55
2023-03-11T19:46:36.205Z,75.88
2023-03-11T19:49:21.935Z,76.34
2023-03-11T19:52:10.061Z,78.11
2023-03-11T19:54:58.572Z,76.00
2023-03-11T19:57:43.800Z,77.02
2023-03-11T20:00:31.676Z,79.17
2023-03-11T20:03:17.634Z,77.93
2023-03-11T20:06:05.417Z,77.13
2023-03-11T20:08:51.050Z,78.18
2023-03-11T20:11:40.631Z,72.97
2023-03-11T20:14:27.853Z,75.18
2023-03-11T20:17:14.654Z,77.21
2023-03-11T20:20:02.719Z,78.82
2023-03-11T20:22:48.079Z,77.94
2023-03-11T20:25:35.771Z,77.48
2023-03-11T20:28:23.448Z,77.17
2023-03-11T20:31:14.637Z,77.27
2023-03-11T20:34:01.835Z,80.17
2023-03-11T20:36:48.903Z,75.82
2023-03-11T20:39:35.995Z,75.75
2023-03-11T20:42:24.590Z,78.92
2023-03-11T20:45:11.943Z,77.18
2023-03-11T20:47:58.007Z,74.60
2023-03-11T20:50:45.210Z,76.75
2023-03-11T20:53:31.687Z,77.05
2023-03-11T20:56:19.684Z,75.77
2023-03-11T20:59:07.715Z,77.90
2023-03-11T21:01:54.656Z,79.35
2023-03-11T21:04:42.942Z,80.32
2023-03-11T21:07:27.978Z,77.68
2023-03-11T21:10:14.510Z,79.09
2023-03-11T21:12:59.978Z,78.28
2023-03-11T21:15:47.336Z,78.75
2023-03-11T21:18:32.729Z,78.62
2023-03-11T21:21:18.855Z,79.38
2023-03-11T21:24:05.101Z,76.10
2023-03-11T21:26:50.207Z,79.60
2023-03-11T21:29:35.300Z,76.11
2023-03-11T21:32:20.420Z,77.85
2023-03-11T21:35:06.831Z,74.12
2023-03-11T21:37:55.260Z,76.66
2023-03-11T21:40:43.612Z,76.00
2023-03-11T21:43:30.329Z,78.29
2023-03-11T21:46:18.455Z,72.90
2023-03-11T21:49:03.780Z,79.43
2023-03-11T21:51:49.013Z,78.09
2023-03-11T21:54:35.644Z,76.65
2023-03-11T21:57:24.294Z,78.60
2023-03-11T22:00:11.255Z,77.72
2023-03-11T22:02:58.100Z,78.35
2023-03-11T22:05:43.476Z,74.53
2023-03-11T22:08:28.692Z,75.66
2023-03-11T22:11:19.540Z,75.95
2023-03-11T22:14:06.458Z,79.40
2023-03-11T22:16:52.416Z,76.15
2023-03-11T22:19:40.107Z,80.60
2023-03-11T22:22:26.810Z,79.78
2023-03-11T22:25:12.054Z,76.97
2023-03-11T22:27:57.543Z,76.92
2023-03-11T22:30:42.576Z,80.21
2023-03-11T22:33:27.959Z,73.90
2023-03-11T22:36:14.863Z,73.99
2023-03-11T22:39:05.125Z,78.30
2023-03-11T22:41:50.310Z,79.06
2023-03-11T22:44:35.423Z,75.47
2023-03-11T22:47:21.096Z,78.23
2023-03-11T22:50:06.149Z,79.08
2023-03-11T22:52:51.822Z,78.57
2023-03-11T22:55:44.154Z,76.26
2023-03-11T22:58:30.370Z,76.90
2023-03-11T23:01:16.492Z,77.91
2023-03-11T23:04:05.104Z,78.19
2023-03-11T23:06:50.178Z,77.41
2023-03-11T23:09:35.398Z,77.47
2023-03-11T23:12:20.589Z,75.89
2023-03-11T23:15:08.855Z,74.89
2023-03-11T23:17:54.221Z,75.85
2023-03-11T23:20:40.466Z,77.00
2023-03-11T23:23:25.604Z,76.09
2023-03-11T23:26:12.215Z,73.66
2023-03-11T23:28:59.629Z,77.35
2023-03-11T23:31:44.477Z,73.53
2023-03-11T23:34:29.494Z,77.66
2023-03-11T23:37:14.428Z,78.26
2023-03-11T23:40:00.697Z,77.80
2023-03-11T23:42:45.873Z,75.36
2023-03-11T23:45:30.825Z,75.80
2023-03-11T23:48:16.807Z,76.91
2023-03-11T23:51:02.226Z,74.45
2023-03-11T23:53:47.693Z,75.45
2023-03-11T23:56:32.925Z,79.92
2023-03-11T23:59:18.899Z,76.53
